Share

Cozad, NE

KNEGOTHE4 Elev 2572 ft | 40.92 °N, 100.17 °W | Change Station

Current weather conditions updated 5 minutes ago

Clear
Clear
67.2 °F
Feels Like 67.2 °F
N
8.0
Wind Variable Wind from ENE
Gusts 8.0 mph
Sunrise 6:54 AM
Sunset 8:23 PM
Moon Waning Gibbous

Tomorrow is forecast to be Warmer than today.

Pressure 29.96 in
Visibility 10.0 miles
Clouds Clear
Dew Point 50 °F
Humidity 55%
Rainfall 0.00 in
Snow Depth Not available.
UV 5 out of 16
Pollen 10.80 out of 12
Air Quality Not available.
Flu Activity Sporadic
METAR KLXN 192155Z AUTO 00000KT 10SM CLR 21/10 A2996 RMK AO2 T02090097

More Conditions Fewer Conditions

Pressure 29.96 in
Visibility 10.0 miles
Clouds Clear
Dew Point 50 °F
Humidity 55%
Rainfall 0.00 in
Snow Depth Not available.
UV 5 out of 16
Pollen 10.80 out of 12
Air Quality Not available.
Flu Activity Sporadic
METAR KLXN 192155Z AUTO 00000KT 10SM CLR 21/10 A2996 RMK AO2 T02090097

More Conditions Fewer Conditions

10-Day Weather Forecast

Almanac

Astronomy

Apr. 19, 2014 Rise Set
Actual Time 6:54 AM CDT 8:23 PM CDT
Civil Twilight 6:26 AM CDT 8:52 PM CDT
Nautical Twilight 5:51 AM CDT 9:27 PM CDT
Astronomical Twilight 5:15 AM CDT 10:04 PM CDT
Moon 12:10 AM CDT 10:14 AM CDT
Length of Visible Light 14h 26m
Length of Day
13h 28m
Tomorrow will be 2m 32s longer.
Waning Gibbous, 76% of the Moon is Illuminated
Today
Waning Gibbous
Apr 22
Last Quarter
Apr 29
New
May 6
First Quarter
May 14
Full

Today's Extremes

State Highs State Lows

Community

  • Happy Easter WU friends!!!!
    Happy Easter WU friends!!!!
  • Skirting the Horizon
    Skirting the Horizon
  • Piriapolis
    Piriapolis
  • A Glorious Morning
    A Glorious Morning
  • Tender Rays Of Hope
    Tender Rays Of Hope

WunderPhotos

Upload Photos

1,702,929 photos uploaded!

WunderBlogs® & News

Nearby

Snow Depth

Station Depth Elevation
No new snow has been reported.

Coastal Water Temperatures

Place Temperature
No Stations Reporting

Earthquake Activity

City Distance Mag. Time & Date
No recent earthquake activity has been reported nearby.
Minimum magnitude displayed is 2.5.

Nearby Weather Stations

Station Location Temp. Dew Point Humidity Wind Precip. Elev Updated Type
MesoWest WILLO2 , Willow Island, NE 63 °F - - North  at  - 0.00 in / hr 2523 ft 4:00 PM CDT MADIS
Gothenburg, NE 67.2 °F 50 °F 55% ENE  at  8.0 mph 0.00 in / hr 2572 ft 5:10 PM CDT Normal
MesoWest LEXNG1 , Lexington, NE 65 °F - - North  at  - 0.00 in / hr 2411 ft 4:00 PM CDT MADIS
Mallard Bay, Johnson Lake, NE 65.3 °F 45 °F 48% NE  at  6.0 mph 0.00 in / hr 2623 ft 5:15 PM CDT Rapid Fire
MesoWest BRADY1 , Brady, NE 65 °F - - North  at  - 0.00 in / hr 2649 ft 4:00 PM CDT MADIS

Show More Stations Show Fewer Stations

What do you think?

We're not finished. Please let us know what you like, what you don't like, and what you are still missing.